Station Historical Data
Daily Summary for November 15, 2017 Units:  Metric    English   Both
« Previous Day
Next Day »
Daily Weekly Monthly Yearly Custom
  High: Low: Average:
Temperature: 13.7 °C 3.5 °C 8.4 °C
Dew Point: 7.6 °C 2.3 °C 4.9 °C
Humidity: 94% 54% 80%
Wind Speed: 7.4km/h 0km/h 1km/h
Wind Gust: 7.4km/h - -
Wind- - WSW
Pressure: 1024.6 hPa 1019.9 hPa -
Precipitation: 0 mm    
Historical Graphs
 
 
Tabular Data for November 15, 2017
Time Temperature Dew Point Pressure Wind Wind Speed Wind Gust Humidity Rainfall Rate (Hourly) solar Conditions
00:02 6 °C 4.7 °C 1024.3 hPa Calm     91% 0 mm WeatherDisplay:10.37 W/m2 CLR
00:07 5.9 °C 4.6 °C 1024.3 hPa Calm     91% 0 mm WeatherDisplay:10.37 W/m2 CLR
00:13 5.8 °C 4.5 °C 1024.3 hPa Calm     91% 0 mm WeatherDisplay:10.37 W/m2 CLR
00:18 5.8 °C 4.5 °C 1024.3 hPa Calm     91% 0 mm WeatherDisplay:10.37 W/m2 CLR
00:23 5.7 °C 4.4 °C 1024.6 hPa Calm     91% 0 mm WeatherDisplay:10.37 W/m2 CLR
00:28 5.7 °C 4.4 °C 1024.6 hPa Calm     91% 0 mm WeatherDisplay:10.37 W/m2 CLR
00:33 5.7 °C 4.3 °C 1024.6 hPa Calm     91% 0 mm WeatherDisplay:10.37 W/m2 CLR
00:38 5.7 °C 4.3 °C 1024.6 hPa Calm     91% 0 mm WeatherDisplay:10.37 W/m2 CLR
00:40 5.7 °C 4.3 °C 1024.6 hPa Calm     91% 0 mm WeatherDisplay:10.37 W/m2 CLR
00:45 5.7 °C 4.4 °C 1024.6 hPa Calm     91% 0 mm WeatherDisplay:10.37 W/m2 CLR
00:50 5.7 °C 4.4 °C 1024.6 hPa Calm     91% 0 mm WeatherDisplay:10.37 W/m2 CLR
00:55 5.6 °C 4.3 °C 1024.6 hPa Calm     91% 0 mm WeatherDisplay:10.37 W/m2 CLR
01:00 5.4 °C 4.1 °C 1024.3 hPa Calm     91% 0 mm WeatherDisplay:10.37 W/m2 CLR
01:05 5.3 °C 4 °C 1024.3 hPa Calm     91% 0 mm WeatherDisplay:10.37 W/m2 CLR
01:07 5.4 °C 4.1 °C 1024.3 hPa Calm     91% 0 mm WeatherDisplay:10.37 W/m2 CLR
01:12 5.4 °C 4.1 °C 1024.6 hPa Calm     91% 0 mm WeatherDisplay:10.37 W/m2 CLR
01:17 5.3 °C 4 °C 1024.6 hPa Calm     91% 0 mm WeatherDisplay:10.37 W/m2 CLR
01:22 5.3 °C 3.9 °C 1024.6 hPa Calm     91% 0 mm WeatherDisplay:10.37 W/m2 CLR
01:27 5.2 °C 3.9 °C 1024.3 hPa Calm     91% 0 mm WeatherDisplay:10.37 W/m2 CLR
01:32 5.2 °C 3.8 °C 1024.3 hPa Calm     91% 0 mm WeatherDisplay:10.37 W/m2 CLR
01:37 5.1 °C 3.8 °C 1024.3 hPa Calm     91% 0 mm WeatherDisplay:10.37 W/m2 CLR
01:42 5.1 °C 3.7 °C 1024.3 hPa Calm     91% 0 mm WeatherDisplay:10.37 W/m2 CLR
01:48 5.1 °C 3.9 °C 1024.3 hPa Calm     92% 0 mm WeatherDisplay:10.37 W/m2 CLR
01:53 5.1 °C 3.9 °C 1024.3 hPa Calm     92% 0 mm WeatherDisplay:10.37 W/m2 CLR
01:58 4.9 °C 3.8 °C 1023.9 hPa Calm     92% 0 mm WeatherDisplay:10.37 W/m2 CLR
02:03 4.9 °C 3.8 °C 1023.9 hPa Calm     92% 0 mm WeatherDisplay:10.37 W/m2 CLR
02:08 4.9 °C 3.8 °C 1023.9 hPa Calm     92% 0 mm WeatherDisplay:10.37 W/m2 CLR
02:13 4.9 °C 3.7 °C 1023.9 hPa Calm     92% 0 mm WeatherDisplay:10.37 W/m2 CLR
02:18 4.9 °C 3.8 °C 1023.9 hPa Calm     92% 0 mm WeatherDisplay:10.37 W/m2 CLR
02:23 5 °C 3.8 °C 1023.9 hPa Calm     92% 0 mm WeatherDisplay:10.37 W/m2 CLR
02:28 4.9 °C 3.8 °C 1023.9 hPa Calm     92% 0 mm WeatherDisplay:10.37 W/m2 CLR
02:33 4.9 °C 3.7 °C 1023.9 hPa Calm     92% 0 mm WeatherDisplay:10.37 W/m2 CLR
02:38 4.9 °C 3.7 °C 1023.6 hPa Calm     92% 0 mm WeatherDisplay:10.37 W/m2 CLR
02:43 4.9 °C 3.7 °C 1023.6 hPa Calm     92% 0 mm WeatherDisplay:10.37 W/m2 CLR
02:49 4.8 °C 3.7 °C 1023.6 hPa Calm     92% 0 mm WeatherDisplay:10.37 W/m2 CLR
02:54 4.8 °C 3.7 °C 1023.9 hPa Calm     92% 0 mm WeatherDisplay:10.37 W/m2 CLR
02:59 4.9 °C 3.7 °C 1023.9 hPa Calm     92% 0 mm WeatherDisplay:10.37 W/m2 CLR
03:04 4.9 °C 3.7 °C 1023.9 hPa Calm     92% 0 mm WeatherDisplay:10.37 W/m2 CLR
03:09 4.8 °C 3.7 °C 1023.9 hPa Calm     92% 0 mm WeatherDisplay:10.37 W/m2 CLR
03:14 4.7 °C 3.6 °C 1023.9 hPa Calm     92% 0 mm WeatherDisplay:10.37 W/m2 CLR
03:24 4.6 °C 3.4 °C 1023.9 hPa Calm     92% 0 mm WeatherDisplay:10.37 W/m2 CLR
03:29 4.6 °C 3.4 °C 1023.9 hPa Calm     92% 0 mm WeatherDisplay:10.37 W/m2 CLR
03:34 4.6 °C 3.4 °C 1023.9 hPa Calm     92% 0 mm WeatherDisplay:10.37 W/m2 CLR
03:39 4.6 °C 3.4 °C 1023.9 hPa Calm     92% 0 mm WeatherDisplay:10.37 W/m2 CLR
03:44 4.7 °C 3.6 °C 1023.9 hPa Calm     93% 0 mm WeatherDisplay:10.37 W/m2 CLR
03:49 4.7 °C 3.5 °C 1023.9 hPa Calm     92% 0 mm WeatherDisplay:10.37 W/m2 CLR
03:54 4.7 °C 3.7 °C 1023.9 hPa Calm     93% 0 mm WeatherDisplay:10.37 W/m2 CLR
03:59 4.7 °C 3.5 °C 1023.9 hPa Calm     92% 0 mm WeatherDisplay:10.37 W/m2 CLR
04:04 4.6 °C 3.4 °C 1023.9 hPa Calm     92% 0 mm WeatherDisplay:10.37 W/m2 CLR
04:09 4.4 °C 3.3 °C 1023.9 hPa Calm     92% 0 mm WeatherDisplay:10.37 W/m2 CLR
04:14 4.3 °C 3.2 °C 1023.9 hPa Calm     92% 0 mm WeatherDisplay:10.37 W/m2 CLR
04:20 4.2 °C 3.1 °C 1024.3 hPa Calm     92% 0 mm WeatherDisplay:10.37 W/m2 CLR
04:25 4.1 °C 2.9 °C 1023.9 hPa Calm     92% 0 mm WeatherDisplay:10.37 W/m2 CLR
04:30 3.9 °C 2.8 °C 1023.9 hPa Calm     92% 0 mm WeatherDisplay:10.37 W/m2 CLR
04:35 3.8 °C 2.7 °C 1023.9 hPa Calm     92% 0 mm WeatherDisplay:10.37 W/m2 CLR
04:40 3.7 °C 2.6 °C 1023.9 hPa Calm     92% 0 mm WeatherDisplay:10.37 W/m2 CLR
04:45 3.7 °C 2.6 °C 1023.9 hPa Calm     92% 0 mm WeatherDisplay:10.37 W/m2 CLR
04:50 3.8 °C 2.6 °C 1023.9 hPa Calm     92% 0 mm WeatherDisplay:10.37 W/m2 CLR
04:55 3.8 °C 2.7 °C 1023.9 hPa Calm     92% 0 mm WeatherDisplay:10.37 W/m2 CLR
05:00 3.9 °C 2.8 °C 1023.9 hPa Calm     93% 0 mm WeatherDisplay:10.37 W/m2 CLR
05:05 4.2 °C 3.1 °C 1023.9 hPa Calm     93% 0 mm WeatherDisplay:10.37 W/m2 CLR
05:10 4.2 °C 3.1 °C 1023.9 hPa Calm     93% 0 mm WeatherDisplay:10.37 W/m2 CLR
05:15 4 °C 2.9 °C 1023.9 hPa Calm     93% 0 mm WeatherDisplay:10.37 W/m2 CLR
05:21 3.8 °C 2.7 °C 1023.9 hPa Calm     92% 0 mm WeatherDisplay:10.37 W/m2 CLR
05:26 3.7 °C 2.6 °C 1023.9 hPa Calm     92% 0 mm WeatherDisplay:10.37 W/m2 CLR
05:27 3.7 °C 2.6 °C 1023.9 hPa Calm     92% 0 mm WeatherDisplay:10.37 W/m2 CLR
05:32 3.6 °C 2.4 °C 1023.9 hPa Calm     92% 0 mm WeatherDisplay:10.37 W/m2 CLR
05:37 3.6 °C 2.4 °C 1023.9 hPa Calm     92% 0 mm WeatherDisplay:10.37 W/m2 CLR
05:42 3.5 °C 2.3 °C 1023.9 hPa Calm     92% 0 mm WeatherDisplay:10.37 W/m2 CLR
05:47 3.6 °C 2.6 °C 1023.9 hPa Calm     93% 0 mm WeatherDisplay:10.37 W/m2 CLR
05:52 3.8 °C 2.7 °C 1023.9 hPa Calm     93% 0 mm WeatherDisplay:10.37 W/m2 CLR
05:57 3.9 °C 2.9 °C 1023.9 hPa Calm     93% 0 mm WeatherDisplay:10.37 W/m2 CLR
06:02 3.9 °C 2.9 °C 1023.9 hPa Calm     93% 0 mm WeatherDisplay:10.37 W/m2 CLR
06:07 3.9 °C 2.9 °C 1023.9 hPa Calm     93% 0 mm WeatherDisplay:10.37 W/m2 CLR
06:12 3.9 °C 2.8 °C 1023.9 hPa Calm     93% 0 mm WeatherDisplay:10.37 W/m2 CLR
06:17 3.8 °C 2.8 °C 1023.9 hPa Calm     93% 0 mm WeatherDisplay:10.37 W/m2 CLR
06:22 3.8 °C 2.7 °C 1023.9 hPa Calm     93% 0 mm WeatherDisplay:10.37 W/m2 CLR
06:27 3.8 °C 2.7 °C 1023.9 hPa Calm     93% 0 mm WeatherDisplay:10.37 W/m2 CLR
06:33 3.9 °C 2.8 °C 1023.6 hPa Calm     93% 0 mm WeatherDisplay:10.37 W/m2 CLR
06:38 3.8 °C 2.8 °C 1023.6 hPa Calm     93% 0 mm WeatherDisplay:10.37 W/m2 CLR
06:43 3.7 °C 2.7 °C 1023.6 hPa Calm     93% 0 mm WeatherDisplay:10.37 W/m2 CLR
06:48 3.6 °C 2.6 °C 1023.6 hPa Calm     93% 0 mm WeatherDisplay:10.37 W/m2 CLR
06:53 3.7 °C 2.7 °C 1023.9 hPa Calm     93% 0 mm WeatherDisplay:10.37 W/m2 CLR
06:58 3.8 °C 2.7 °C 1023.9 hPa Calm     93% 0 mm WeatherDisplay:10.37 W/m2 CLR
07:03 3.8 °C 2.8 °C 1023.9 hPa Calm     93% 0 mm WeatherDisplay:10.37 W/m2 FEW
07:08 3.8 °C 2.8 °C 1023.9 hPa Calm     93% 0 mm WeatherDisplay:10.37 W/m2 FEW
07:13 3.9 °C 2.8 °C 1023.9 hPa Calm     93% 0 mm WeatherDisplay:10.37 W/m2 FEW
07:18 3.9 °C 2.8 °C 1024.3 hPa Calm     93% 0 mm WeatherDisplay:10.37 W/m2 FEW
07:23 3.9 °C 2.9 °C 1024.3 hPa Calm     93% 0 mm WeatherDisplay:10.37 W/m2 FEW
07:28 3.9 °C 2.9 °C 1024.3 hPa Calm     93% 0 mm WeatherDisplay:10.37 W/m2 FEW
07:33 3.9 °C 2.8 °C 1024.3 hPa Calm     93% 0 mm WeatherDisplay:10.37 W/m2 FEW
07:39 3.9 °C 2.9 °C 1024.3 hPa Calm     93% 0 mm WeatherDisplay:10.37 W/m2 FEW
07:44 3.9 °C 2.8 °C 1024.3 hPa Calm     93% 0 mm WeatherDisplay:10.37 W/m2 FEW
07:49 3.9 °C 2.8 °C 1024.3 hPa Calm     93% 0 mm WeatherDisplay:10.37 W/m2 FEW
07:54 3.9 °C 2.9 °C 1024.3 hPa Calm     93% 0 mm WeatherDisplay:10.37 W/m2 FEW
07:59 4.1 °C 3 °C 1024.3 hPa Calm     93% 0 mm WeatherDisplay:10.37 W/m2 FEW
08:04 4.3 °C 3.3 °C 1024.3 hPa Calm     93% 0 mm WeatherDisplay:10.37 W/m2 SCT
08:09 4.6 °C 3.7 °C 1024.3 hPa Calm     94% 0 mm WeatherDisplay:10.37 W/m2 SCT
08:14 4.7 °C 3.8 °C 1024.3 hPa East 1.9 km/h   94% 0 mm WeatherDisplay:10.37 W/m2 SCT
08:19 4.9 °C 4 °C 1024.3 hPa East 1.9 km/h   94% 0 mm WeatherDisplay:10.37 W/m2 SCT
08:24 5.1 °C 4.2 °C 1024.3 hPa North 1.9 km/h   94% 0 mm WeatherDisplay:10.37 W/m2 SCT
08:29 5.2 °C 4.3 °C 1024.3 hPa West 1.9 km/h   94% 0 mm WeatherDisplay:10.37 W/m2 SCT
08:34 5.4 °C 4.6 °C 1024.3 hPa West 1.9 km/h   94% 0 mm WeatherDisplay:10.37 W/m2 SCT
08:40 5.6 °C 4.7 °C 1024.3 hPa West 1.9 km/h   94% 0 mm WeatherDisplay:10.37 W/m2 SCT
08:45 5.8 °C 4.8 °C 1024.3 hPa West 1.9 km/h   93% 0 mm WeatherDisplay:10.37 W/m2 SCT
08:50 6.1 °C 5 °C 1024.6 hPa West 1.9 km/h   93% 0 mm WeatherDisplay:10.37 W/m2 SCT
08:55 6.4 °C 5.3 °C 1024.6 hPa West 1.9 km/h   93% 0 mm WeatherDisplay:10.37 W/m2 SCT
09:00 6.7 °C 5.5 °C 1024.6 hPa West 1.9 km/h 1.9 km/h 92% 0 mm WeatherDisplay:10.37 W/m2 SCT
09:05 7 °C 5.6 °C 1024.6 hPa West 1.9 km/h   91% 0 mm WeatherDisplay:10.37 W/m2 SCT
09:10 7.1 °C 5.3 °C 1024.6 hPa West 3.7 km/h 3.7 km/h 88% 0 mm WeatherDisplay:10.37 W/m2 SCT
09:15 7.3 °C 5.6 °C 1024.6 hPa West 3.7 km/h 3.7 km/h 89% 0 mm WeatherDisplay:10.37 W/m2 BKN
09:20 7.6 °C 5.7 °C 1024.6 hPa West 1.9 km/h   88% 0 mm WeatherDisplay:10.37 W/m2 BKN
09:25 7.8 °C 5.8 °C 1024.6 hPa West 1.9 km/h   87% 0 mm WeatherDisplay:10.37 W/m2 BKN
09:30 8.3 °C 6.1 °C 1024.6 hPa WNW 1.9 km/h   86% 0 mm WeatherDisplay:10.37 W/m2 BKN
09:35 8.6 °C 5.8 °C 1024.6 hPa WNW 1.9 km/h 1.9 km/h 83% 0 mm WeatherDisplay:10.37 W/m2 BKN
09:40 8.8 °C 5.7 °C 1024.3 hPa WNW 1.9 km/h   81% 0 mm WeatherDisplay:10.37 W/m2 BKN
09:46 9.1 °C 5.7 °C 1024.6 hPa WNW 1.9 km/h 1.9 km/h 79% 0 mm WeatherDisplay:10.37 W/m2 BKN
09:51 9.2 °C 5.2 °C 1024.3 hPa West 3.7 km/h 3.7 km/h 76% 0 mm WeatherDisplay:10.37 W/m2 BKN
09:56 9.3 °C 5.3 °C 1024.3 hPa West 3.7 km/h 3.7 km/h 76% 0 mm WeatherDisplay:10.37 W/m2 BKN
09:57 9.3 °C 5.3 °C 1024.3 hPa WNW 3.7 km/h 3.7 km/h 76% 0 mm WeatherDisplay:10.37 W/m2 BKN
10:02 9.4 °C 5.4 °C 1024.3 hPa WNW 3.7 km/h 3.7 km/h 76% 0 mm WeatherDisplay:10.37 W/m2 OVC
10:07 9.3 °C 4.9 °C 1024.3 hPa WNW 3.7 km/h 3.7 km/h 74% 0 mm WeatherDisplay:10.37 W/m2 OVC
10:13 9.4 °C 5 °C 1024.3 hPa West 7.4 km/h 7.4 km/h 74% 0 mm WeatherDisplay:10.37 W/m2 OVC
10:18 9.7 °C 4.7 °C 1024.3 hPa WNW 7.4 km/h 7.4 km/h 71% 0 mm WeatherDisplay:10.37 W/m2 OVC
10:23 9.9 °C 4.9 °C 1024.3 hPa WNW 5.6 km/h 5.6 km/h 71% 0 mm WeatherDisplay:10.37 W/m2 OVC
10:28 10.2 °C 5.2 °C 1024.3 hPa WNW 5.6 km/h 5.6 km/h 71% 0 mm WeatherDisplay:10.37 W/m2 OVC
10:33 10.3 °C 5.1 °C 1024.3 hPa WNW 3.7 km/h 3.7 km/h 70% 0 mm WeatherDisplay:10.37 W/m2 OVC
10:38 10.6 °C 4.9 °C 1024.3 hPa WNW 3.7 km/h 3.7 km/h 68% 0 mm WeatherDisplay:10.37 W/m2 OVC
10:43 10.7 °C 5.4 °C 1024.3 hPa WNW 3.7 km/h   70% 0 mm WeatherDisplay:10.37 W/m2 OVC
10:48 10.9 °C 5.5 °C 1023.9 hPa West 3.7 km/h 3.7 km/h 69% 0 mm WeatherDisplay:10.37 W/m2 OVC
10:53 11.2 °C 5.7 °C 1023.9 hPa WNW 1.9 km/h 1.9 km/h 69% 0 mm WeatherDisplay:10.37 W/m2 OVC
10:58 11.1 °C 5.2 °C 1023.9 hPa West 3.7 km/h 3.7 km/h 67% 0 mm WeatherDisplay:10.37 W/m2 OVC
11:03 11.1 °C 5.2 °C 1023.9 hPa West 3.7 km/h 3.7 km/h 67% 0 mm WeatherDisplay:10.37 W/m2 OVC
11:08 10.9 °C 5.1 °C 1023.9 hPa WNW 5.6 km/h 5.6 km/h 67% 0 mm WeatherDisplay:10.37 W/m2 OVC
11:13 11.1 °C 4.7 °C 1023.9 hPa WNW 5.6 km/h   65% 0 mm WeatherDisplay:10.37 W/m2 OVC
11:19 11.2 °C 5.1 °C 1023.6 hPa WNW 3.7 km/h 3.7 km/h 66% 0 mm WeatherDisplay:10.37 W/m2 OVC
11:24 11.2 °C 5.3 °C 1023.6 hPa NW 1.9 km/h 1.9 km/h 67% 0 mm WeatherDisplay:10.37 W/m2 OVC
11:29 11.3 °C 5.2 °C 1023.2 hPa West 3.7 km/h 3.7 km/h 66% 0 mm WeatherDisplay:10.37 W/m2 OVC
11:34 11.3 °C 5 °C 1023.2 hPa NW 3.7 km/h   65% 0 mm WeatherDisplay:10.37 W/m2 OVC
11:39 11.4 °C 5.1 °C 1023.2 hPa NNW 1.9 km/h 1.9 km/h 65% 0 mm WeatherDisplay:10.37 W/m2 OVC
11:44 11.3 °C 4.9 °C 1023.2 hPa WNW 5.6 km/h 5.6 km/h 65% 0 mm WeatherDisplay:10.37 W/m2 OVC
11:49 11.4 °C 5.5 °C 1023.2 hPa NW 5.6 km/h 5.6 km/h 67% 0 mm WeatherDisplay:10.37 W/m2 OVC
11:54 11.6 °C 4.8 °C 1023.2 hPa NW 3.7 km/h 3.7 km/h 63% 0 mm WeatherDisplay:10.37 W/m2 OVC
11:59 11.6 °C 4.7 °C 1022.9 hPa West 5.6 km/h 5.6 km/h 63% 0 mm WeatherDisplay:10.37 W/m2 OVC
12:04 11.6 °C 4.7 °C 1022.9 hPa NNW 5.6 km/h 5.6 km/h 63% 0 mm WeatherDisplay:10.37 W/m2 OVC
12:09 11.6 °C 5 °C 1022.9 hPa NNW 5.6 km/h 5.6 km/h 64% 0 mm WeatherDisplay:10.37 W/m2 OVC
12:15 11.6 °C 5 °C 1022.6 hPa NW 3.7 km/h 3.7 km/h 64% 0 mm WeatherDisplay:10.37 W/m2 OVC
12:20 11.6 °C 4.7 °C 1022.6 hPa Calm   1.6 km/h 63% 0 mm WeatherDisplay:10.37 W/m2 OVC
12:25 11.5 °C 4.9 °C 1022.2 hPa Calm   1.6 km/h 64% 0 mm WeatherDisplay:10.37 W/m2 OVC
12:30 11.6 °C 4.5 °C 1022.2 hPa WNW 1.9 km/h 1.9 km/h 62% 0 mm WeatherDisplay:10.37 W/m2 OVC
12:35 11.6 °C 5 °C 1022.2 hPa West 3.7 km/h   64% 0 mm WeatherDisplay:10.37 W/m2 OVC
12:40 11.7 °C 4.8 °C 1022.2 hPa West 3.7 km/h 3.7 km/h 63% 0 mm WeatherDisplay:10.37 W/m2 OVC
12:45 11.7 °C 4.7 °C 1022.2 hPa WNW 3.7 km/h   62% 0 mm WeatherDisplay:10.37 W/m2 OVC
12:50 11.8 °C 4.7 °C 1021.9 hPa NW 3.7 km/h 3.7 km/h 62% 0 mm WeatherDisplay:10.37 W/m2 OVC
12:55 11.9 °C 5.3 °C 1021.9 hPa ESE 3.7 km/h 3.7 km/h 64% 0 mm WeatherDisplay:10.37 W/m2 OVC
13:00 12.3 °C 5 °C 1021.9 hPa ENE 3.7 km/h   61% 0 mm WeatherDisplay:10.37 W/m2 OVC
13:05 12.8 °C 4.9 °C 1021.9 hPa NNW 3.7 km/h 3.7 km/h 59% 0 mm WeatherDisplay:10.37 W/m2 BKN
13:10 12.9 °C 5.1 °C 1021.9 hPa NW 1.9 km/h   59% 0 mm WeatherDisplay:10.37 W/m2 BKN
13:15 13.1 °C 5.8 °C 1021.9 hPa NW 3.7 km/h   61% 0 mm WeatherDisplay:10.37 W/m2 BKN
13:20 13.1 °C 4.5 °C 1021.9 hPa West 3.7 km/h 3.7 km/h 56% 0 mm WeatherDisplay:10.37 W/m2 BKN
13:26 12.9 °C 4.9 °C 1021.6 hPa WSW 3.7 km/h 3.7 km/h 58% 0 mm WeatherDisplay:10.37 W/m2 BKN
13:31 12.9 °C 4.8 °C 1021.9 hPa SE 3.7 km/h 3.7 km/h 58% 0 mm WeatherDisplay:10.37 W/m2 BKN
13:36 13 °C 4.9 °C 1021.6 hPa ENE 1.9 km/h 1.9 km/h 58% 0 mm WeatherDisplay:10.37 W/m2 BKN
13:41 12.9 °C 4.4 °C 1021.6 hPa NNW 5.6 km/h 5.6 km/h 56% 0 mm WeatherDisplay:10.37 W/m2 BKN
13:46 12.8 °C 4.4 °C 1021.6 hPa NNW 5.6 km/h 5.6 km/h 57% 0 mm WeatherDisplay:10.37 W/m2 BKN
13:51 12.6 °C 4.3 °C 1021.6 hPa NE 3.7 km/h 3.7 km/h 57% 0 mm WeatherDisplay:10.37 W/m2 BKN
13:56 12.6 °C 4.5 °C 1021.2 hPa East 3.7 km/h 3.7 km/h 58% 0 mm WeatherDisplay:10.37 W/m2 BKN
14:01 12.8 °C 4.8 °C 1021.2 hPa ENE 3.7 km/h   58% 0 mm WeatherDisplay:10.37 W/m2 BKN
14:06 13.1 °C 4.5 °C 1021.2 hPa NNW 1.9 km/h 1.9 km/h 56% 0 mm WeatherDisplay:10.37 W/m2 BKN
14:11 13.2 °C 4.8 °C 1021.2 hPa NW 1.9 km/h   57% 0 mm WeatherDisplay:10.37 W/m2 BKN
14:16 13.2 °C 4.1 °C 1021.2 hPa NW 1.9 km/h   54% 0 mm WeatherDisplay:10.37 W/m2 BKN
14:21 13.1 °C 4.4 °C 1020.9 hPa NW 1.9 km/h   56% 0 mm WeatherDisplay:10.37 W/m2 BKN
14:26 13 °C 4.2 °C 1020.9 hPa WNW 1.9 km/h 1.9 km/h 55% 0 mm WeatherDisplay:10.37 W/m2 BKN
14:31 13.1 °C 4.4 °C 1020.9 hPa West 1.9 km/h 1.9 km/h 56% 0 mm WeatherDisplay:10.37 W/m2 BKN
14:37 13.2 °C 4.6 °C 1020.9 hPa West 1.9 km/h 1.9 km/h 56% 0 mm WeatherDisplay:10.37 W/m2 BKN
14:42 13.3 °C 4.7 °C 1020.9 hPa West 1.9 km/h 1.9 km/h 56% 0 mm WeatherDisplay:10.37 W/m2 BKN
14:47 13.3 °C 4.7 °C 1020.9 hPa WNW 3.7 km/h 3.7 km/h 56% 0 mm WeatherDisplay:10.37 W/m2 BKN
14:52 13.3 °C 4.9 °C 1020.9 hPa West 3.7 km/h   57% 0 mm WeatherDisplay:10.37 W/m2 BKN
14:57 13.3 °C 5 °C 1020.5 hPa West 3.7 km/h 3.7 km/h 57% 0 mm WeatherDisplay:10.37 W/m2 BKN
15:02 13.4 °C 4.8 °C 1020.5 hPa West 3.7 km/h   56% 0 mm WeatherDisplay:10.37 W/m2 BKN
15:07 13.4 °C 5.6 °C 1020.2 hPa WNW 1.9 km/h   59% 0 mm WeatherDisplay:10.37 W/m2 BKN
15:12 13.5 °C 5.2 °C 1020.2 hPa WNW 1.9 km/h   57% 0 mm WeatherDisplay:10.37 W/m2 BKN
15:17 13.6 °C 4.7 °C 1020.2 hPa NW 1.9 km/h   55% 0 mm WeatherDisplay:10.37 W/m2 BKN
15:22 13.6 °C 5.2 °C 1020.5 hPa NNE 1.9 km/h   57% 0 mm WeatherDisplay:10.37 W/m2 BKN
15:27 13.7 °C 5.6 °C 1020.2 hPa North 1.9 km/h   58% 0 mm WeatherDisplay:10.37 W/m2 BKN
15:32 13.7 °C 5.3 °C 1020.5 hPa Calm     57% 0 mm WeatherDisplay:10.37 W/m2 BKN
15:37 13.6 °C 5.2 °C 1020.5 hPa Calm     57% 0 mm WeatherDisplay:10.37 W/m2 BKN
15:43 13.6 °C 5.2 °C 1020.5 hPa Calm     57% 0 mm WeatherDisplay:10.37 W/m2 BKN
15:48 13.6 °C 5.4 °C 1020.5 hPa Calm     58% 0 mm WeatherDisplay:10.37 W/m2 BKN
15:53 13.5 °C 6.1 °C 1020.5 hPa Calm     61% 0 mm WeatherDisplay:10.37 W/m2 BKN
15:58 13.4 °C 5.6 °C 1020.2 hPa Calm     59% 0 mm WeatherDisplay:10.37 W/m2 BKN
16:03 13.4 °C 5.8 °C 1020.5 hPa Calm     60% 0 mm WeatherDisplay:10.37 W/m2 BKN
16:08 13.4 °C 5.3 °C 1020.5 hPa Calm     58% 0 mm WeatherDisplay:10.37 W/m2 BKN
16:13 13.3 °C 5.7 °C 1020.2 hPa Calm     60% 0 mm WeatherDisplay:10.37 W/m2 BKN
16:18 13.2 °C 5.8 °C 1020.5 hPa Calm     61% 0 mm WeatherDisplay:10.37 W/m2 BKN
16:23 13.2 °C 6.1 °C 1020.5 hPa Calm     62% 0 mm WeatherDisplay:10.37 W/m2 BKN
16:28 13.1 °C 5.7 °C 1020.2 hPa Calm     61% 0 mm WeatherDisplay:10.37 W/m2 BKN
16:38 12.7 °C 5.8 °C 1020.2 hPa Calm     63% 0 mm WeatherDisplay:10.37 W/m2 BKN
16:43 12.6 °C 5.7 °C 1020.2 hPa Calm     63% 0 mm WeatherDisplay:10.37 W/m2 BKN
16:48 12.4 °C 5.8 °C 1020.2 hPa Calm     64% 0 mm WeatherDisplay:10.37 W/m2 BKN
16:54 12.2 °C 5.6 °C 1020.2 hPa Calm     64% 0 mm WeatherDisplay:10.37 W/m2 BKN
16:59 12.2 °C 5.6 °C 1020.2 hPa Calm     64% 0 mm WeatherDisplay:10.37 W/m2 BKN
17:04 12.1 °C 5.7 °C 1019.9 hPa Calm     65% 0 mm WeatherDisplay:10.37 W/m2 BKN
17:09 11.9 °C 5.9 °C 1020.2 hPa Calm     67% 0 mm WeatherDisplay:10.37 W/m2 BKN
17:14 11.7 °C 5.8 °C 1020.2 hPa Calm     67% 0 mm WeatherDisplay:10.37 W/m2 BKN
17:19 11.6 °C 5.6 °C 1019.9 hPa Calm     67% 0 mm WeatherDisplay:10.37 W/m2 BKN
17:24 11.4 °C 5.7 °C 1020.5 hPa NNE 1.9 km/h   68% 0 mm WeatherDisplay:10.37 W/m2 BKN
17:29 11.3 °C 5.6 °C 1020.5 hPa NNE 1.9 km/h   68% 0 mm WeatherDisplay:10.37 W/m2 BKN
17:34 11.2 °C 5.6 °C 1020.5 hPa Calm     68% 0 mm WeatherDisplay:10.37 W/m2 BKN
17:39 11.1 °C 5.8 °C 1020.5 hPa Calm     70% 0 mm WeatherDisplay:10.37 W/m2 BKN
17:44 11 °C 5.9 °C 1020.5 hPa Calm     71% 0 mm WeatherDisplay:10.37 W/m2 BKN
17:49 10.8 °C 5.8 °C 1020.9 hPa Calm     71% 0 mm WeatherDisplay:10.37 W/m2 BKN
17:54 10.8 °C 5.9 °C 1020.9 hPa Calm     72% 0 mm WeatherDisplay:10.37 W/m2 BKN
17:59 10.8 °C 5.9 °C 1020.9 hPa Calm     72% 0 mm WeatherDisplay:10.37 W/m2 BKN
18:05 10.7 °C 6 °C 1021.2 hPa Calm     73% 0 mm WeatherDisplay:10.37 W/m2 BKN
18:10 10.5 °C 5.9 °C 1020.9 hPa Calm     73% 0 mm WeatherDisplay:10.37 W/m2 BKN
18:15 10.3 °C 5.8 °C 1021.2 hPa Calm     74% 0 mm WeatherDisplay:10.37 W/m2 BKN
18:20 10.2 °C 5.9 °C 1020.9 hPa Calm     75% 0 mm WeatherDisplay:10.37 W/m2 BKN
18:25 10.1 °C 6 °C 1021.2 hPa Calm     76% 0 mm WeatherDisplay:10.37 W/m2 BKN
18:30 9.9 °C 5.9 °C 1021.2 hPa Calm     76% 0 mm WeatherDisplay:10.37 W/m2 BKN
18:35 9.9 °C 5.8 °C 1021.2 hPa Calm     76% 0 mm WeatherDisplay:10.37 W/m2 BKN
18:40 9.8 °C 5.6 °C 1021.2 hPa Calm     75% 0 mm WeatherDisplay:10.37 W/m2 BKN
18:45 9.7 °C 5.7 °C 1021.2 hPa Calm     76% 0 mm WeatherDisplay:10.37 W/m2 BKN
18:50 9.7 °C 5.6 °C 1021.2 hPa Calm     76% 0 mm WeatherDisplay:10.37 W/m2 BKN
18:55 9.6 °C 5.9 °C 1021.6 hPa Calm     78% 0 mm WeatherDisplay:10.37 W/m2 BKN
19:00 9.6 °C 6.2 °C 1021.2 hPa Calm     79% 0 mm WeatherDisplay:10.37 W/m2 BKN
19:05 9.5 °C 6.1 °C 1021.2 hPa Calm     79% 0 mm WeatherDisplay:10.37 W/m2 BKN
19:11 9.4 °C 6.1 °C 1021.2 hPa Calm     80% 0 mm WeatherDisplay:10.37 W/m2 BKN
19:16 9.3 °C 6.2 °C 1021.2 hPa Calm     81% 0 mm WeatherDisplay:10.37 W/m2 BKN
19:21 9.2 °C 6.1 °C 1021.2 hPa Calm     81% 0 mm WeatherDisplay:10.37 W/m2 BKN
19:26 9.1 °C 6.2 °C 1021.2 hPa Calm     82% 0 mm WeatherDisplay:10.37 W/m2 BKN
19:31 9 °C 6.1 °C 1021.2 hPa Calm     82% 0 mm WeatherDisplay:10.37 W/m2 BKN
19:36 8.9 °C 6.2 °C 1021.2 hPa Calm     83% 0 mm WeatherDisplay:10.37 W/m2 BKN
19:41 8.8 °C 6.1 °C 1021.2 hPa Calm     83% 0 mm WeatherDisplay:10.37 W/m2 BKN
19:46 8.8 °C 6.3 °C 1021.2 hPa Calm     84% 0 mm WeatherDisplay:10.37 W/m2 BKN
19:51 8.8 °C 6.3 °C 1021.2 hPa Calm     84% 0 mm WeatherDisplay:10.37 W/m2 BKN
19:56 8.8 °C 6.4 °C 1021.2 hPa Calm     85% 0 mm WeatherDisplay:10.37 W/m2 BKN
20:01 8.8 °C 6.4 °C 1020.9 hPa Calm     85% 0 mm WeatherDisplay:10.37 W/m2 BKN
20:06 8.8 °C 6.4 °C 1021.2 hPa Calm     85% 0 mm WeatherDisplay:10.37 W/m2 BKN
20:11 8.7 °C 6.3 °C 1021.2 hPa Calm     85% 0 mm WeatherDisplay:10.37 W/m2 BKN
20:17 8.7 °C 6.1 °C 1021.2 hPa Calm     84% 0 mm WeatherDisplay:10.37 W/m2 BKN
20:22 8.6 °C 6.1 °C 1021.2 hPa Calm     84% 0 mm WeatherDisplay:10.37 W/m2 BKN
20:27 8.6 °C 6.2 °C 1021.2 hPa Calm     85% 0 mm WeatherDisplay:10.37 W/m2 BKN
20:32 8.6 °C 6.2 °C 1021.2 hPa Calm     85% 0 mm WeatherDisplay:10.37 W/m2 BKN
20:37 8.7 °C 6.3 °C 1021.2 hPa Calm     85% 0 mm WeatherDisplay:10.37 W/m2 BKN
20:42 8.7 °C 6.3 °C 1021.2 hPa Calm     85% 0 mm WeatherDisplay:10.37 W/m2 BKN
20:47 8.8 °C 6.4 °C 1021.2 hPa Calm     85% 0 mm WeatherDisplay:10.37 W/m2 BKN
20:52 8.8 °C 6.4 °C 1021.2 hPa Calm     85% 0 mm WeatherDisplay:10.37 W/m2 BKN
20:57 8.9 °C 6.3 °C 1021.2 hPa Calm     84% 0 mm WeatherDisplay:10.37 W/m2 BKN
21:02 8.9 °C 6.4 °C 1021.2 hPa Calm     84% 0 mm WeatherDisplay:10.37 W/m2 BKN
21:13 9.1 °C 6.7 °C 1021.2 hPa Calm     85% 0 mm WeatherDisplay:10.37 W/m2 BKN
21:18 9.1 °C 6.6 °C 1021.2 hPa Calm     84% 0 mm WeatherDisplay:10.37 W/m2 BKN
21:28 9.2 °C 6.8 °C 1021.2 hPa Calm     85% 0 mm WeatherDisplay:10.37 W/m2 BKN
21:33 9.3 °C 6.9 °C 1021.2 hPa Calm     85% 0 mm WeatherDisplay:10.37 W/m2 BKN
21:38 9.4 °C 7 °C 1021.2 hPa Calm     85% 0 mm WeatherDisplay:10.37 W/m2 BKN
21:43 9.4 °C 7.1 °C 1021.2 hPa Calm     85% 0 mm WeatherDisplay:10.37 W/m2 BKN
21:48 9.6 °C 7.3 °C 1021.2 hPa Calm     86% 0 mm WeatherDisplay:10.37 W/m2 BKN
21:53 9.6 °C 7.2 °C 1021.2 hPa Calm     85% 0 mm WeatherDisplay:10.37 W/m2 BKN
21:58 9.6 °C 7.4 °C 1021.2 hPa Calm     86% 0 mm WeatherDisplay:10.37 W/m2 BKN
22:03 9.8 °C 7.4 °C 1021.2 hPa Calm     85% 0 mm WeatherDisplay:10.37 W/m2 BKN
22:08 9.9 °C 7.4 °C 1021.2 hPa Calm     84% 0 mm WeatherDisplay:10.37 W/m2 BKN
22:15 10 °C 7.6 °C 1021.2 hPa Calm     85% 0 mm WeatherDisplay:10.37 W/m2 BKN
22:20 10 °C 7.4 °C 1021.2 hPa Calm     84% 0 mm WeatherDisplay:10.37 W/m2 BKN
22:23 10 °C 7.4 °C 1021.2 hPa Calm     84% 0 mm WeatherDisplay:10.37 W/m2 BKN
22:28 10 °C 7.2 °C 1021.2 hPa Calm     83% 0 mm WeatherDisplay:10.37 W/m2 BKN
22:33 10.1 °C 7.1 °C 1021.2 hPa Calm     82% 0 mm WeatherDisplay:10.37 W/m2 BKN
22:36 10.1 °C 7.2 °C 1021.2 hPa Calm     82% 0 mm WeatherDisplay:10.37 W/m2 BKN
22:41 10.2 °C 7.4 °C 1021.2 hPa Calm     83% 0 mm WeatherDisplay:10.37 W/m2 BKN
22:46 10.1 °C 7.2 °C 1021.2 hPa Calm     82% 0 mm WeatherDisplay:10.37 W/m2 BKN
22:51 10.1 °C 6.9 °C 1021.2 hPa Calm     81% 0 mm WeatherDisplay:10.37 W/m2 BKN
22:56 10.1 °C 6.9 °C 1021.2 hPa Calm     81% 0 mm WeatherDisplay:10.37 W/m2 BKN
23:01 10 °C 6.7 °C 1021.2 hPa Calm     80% 0 mm WeatherDisplay:10.37 W/m2 BKN
23:06 10 °C 6.7 °C 1021.2 hPa Calm     80% 0 mm WeatherDisplay:10.37 W/m2 BKN
23:11 10.1 °C 7.1 °C 1021.2 hPa Calm     82% 0 mm WeatherDisplay:10.37 W/m2 BKN
23:16 10.1 °C 7.1 °C 1021.2 hPa Calm     82% 0 mm WeatherDisplay:10.37 W/m2 BKN
23:21 10.1 °C 7.1 °C 1020.9 hPa Calm     82% 0 mm WeatherDisplay:10.37 W/m2 BKN
23:27 10.1 °C 7.3 °C 1020.9 hPa Calm     83% 0 mm WeatherDisplay:10.37 W/m2 BKN
23:32 10.1 °C 7.3 °C 1020.9 hPa Calm     83% 0 mm WeatherDisplay:10.37 W/m2 BKN
23:37 10.1 °C 7.3 °C 1020.9 hPa Calm     83% 0 mm WeatherDisplay:10.37 W/m2 BKN
23:42 10.1 °C 7.3 °C 1020.9 hPa Calm     83% 0 mm WeatherDisplay:10.37 W/m2 BKN
23:47 10.1 °C 7.1 °C 1020.9 hPa Calm     82% 0 mm WeatherDisplay:10.37 W/m2 BKN
23:52 10.1 °C 7.1 °C 1020.9 hPa Calm     82% 0 mm WeatherDisplay:10.37 W/m2 BKN
23:57 10 °C 6.9 °C 1020.5 hPa Calm     81% 0 mm WeatherDisplay:10.37 W/m2 BKN
Piedmont Bend
Compliments of Weather Underground - 4 mb